Maersk Dunbar — A8GU7 — position and weather

sailwx.info

Track history (hours):
 
Tides and Currents Weather Stations Pressure Air Temp Water Temp Dewpoint Dewpoint Depression Visibility Wind Speed Wind Dir Waves Ship Positions

Maersk Dunbar

Last reported at 2018-Jun-23 06:00 UTC. Time now 2018-Jun-23 10:17 UTC.
Position N 17°24' W 074°48'.

Length 264 m; beam 32.3 m; draft 12.5 m.

Type: Ship (hazmat cat B). MMSI: 636090862.

Wind from 110 at 15 knots

Barometer 1015.0 mb
Air temperature 29.0 ° C
Visibility: greater than 10.8 NM
Dewpoint 26.3 ° C
Water temperature 29.0 ° C

Date/timePositionNaut miles runAvg speedWind from/ knotsBaromVisibWave heightAir tempDewpointWater temp
2018-Jun-23 06:00N 17°24' W 074°48'18015.0 110 / 151015.010.8 29.026.329.0
2018-Jun-22 18:00N 20°18' W 074°00'18315.2 110 / 101016.010.8 32.029.429.0
2018-Jun-22 06:00N 21°42' W 076°54'17914.9 110 / 101016.010.8 29.026.329.0
2018-Jun-21 18:00N 23°42' W 079°18'14215.1 230 / 101016.010.8 32.028.129.0
2018-Jun-21 08:32N 26°03' W 079°38'112.7
2018-Jun-21 08:29N 26°04' W 079°38'715.4
2018-Jun-21 08:00N 26°05' W 079°46'816.1
2018-Jun-21 07:30N 26°05' W 079°55'815.8
2018-Jun-21 07:00N 26°05' W 080°04'3 5.5
2018-Jun-21 06:30N 26°05' W 080°07'1 1.5
2018-Jun-21 05:55N 26°04' W 080°07'0 0.0
2018-Jun-21 05:25N 26°04' W 080°07'0 0.0
2018-Jun-21 04:55N 26°04' W 080°07'0 0.0
2018-Jun-21 04:25N 26°04' W 080°07'0 0.0
2018-Jun-21 03:55N 26°04' W 080°07'0 0.0
2018-Jun-21 03:25N 26°04' W 080°07'0 0.0
2018-Jun-21 02:58N 26°04' W 080°07'0 0.0
2018-Jun-21 02:25N 26°04' W 080°07'0 0.0
2018-Jun-21 01:58N 26°04' W 080°07'0 0.0
2018-Jun-21 01:25N 26°04' W 080°07'0 0.0
2018-Jun-21 00:58N 26°04' W 080°07'0 0.0
2018-Jun-21 00:28N 26°04' W 080°07'0 0.0
2018-Jun-20 23:58N 26°04' W 080°07'0 0.0
2018-Jun-20 23:28N 26°04' W 080°07'0 0.0
2018-Jun-20 22:58N 26°04' W 080°07'0 0.0
2018-Jun-20 22:28N 26°04' W 080°07'0 0.0
2018-Jun-20 21:58N 26°04' W 080°07'0 0.0
2018-Jun-20 21:28N 26°04' W 080°07'0 0.0
2018-Jun-20 20:46N 26°04' W 080°07'0 0.0
2018-Jun-20 19:46N 26°04' W 080°07'0 0.0
2018-Jun-20 19:28N 26°04' W 080°07'0 0.0
2018-Jun-20 18:58N 26°04' W 080°07'0 0.0
2018-Jun-20 18:28N 26°04' W 080°07'0 0.0
2018-Jun-20 17:58N 26°04' W 080°07'0 0.0
2018-Jun-20 17:28N 26°04' W 080°07'0 0.0
2018-Jun-20 16:58N 26°04' W 080°07'0 0.8
2018-Jun-20 16:30N 26°05' W 080°07'2 4.8
2018-Jun-20 16:00N 26°06' W 080°04'3 5.6
2018-Jun-20 15:30N 26°06' W 080°01'2 3.3
2018-Jun-20 15:00N 26°06' W 079°59'3 6.0
2018-Jun-20 14:30N 26°06' W 079°56'3 5.7
2018-Jun-20 14:00N 26°06' W 079°53'3 5.5
2018-Jun-20 13:29N 26°07' W 079°50'3 5.3
2018-Jun-20 13:00N 26°09' W 079°48'5 9.6
2018-Jun-20 12:29N 26°13' W 079°46'11417.6
2018-Jun-20 06:00N 28°00' W 079°00'28917.5 160 / 121016.010.8 25.022.228.0
2018-Jun-19 13:32N 32°45' W 079°52'210.2
2018-Jun-19 13:22N 32°46' W 079°53'2 0.1
2018-Jun-18 21:05N 32°48' W 079°55'1 7.7
2018-Jun-18 21:00N 32°47' W 079°55'38611.7
2018-Jun-17 12:05N 38°34' W 076°26'1618.9
2018-Jun-17 11:14N 38°50' W 076°24'418.6
2018-Jun-17 11:00N 38°54' W 076°24'1113.8
2018-Jun-17 10:14N 39°05' W 076°24'412.4
2018-Jun-17 09:54N 39°09' W 076°25'510.7
2018-Jun-17 09:29N 39°12' W 076°29'5 9.6
2018-Jun-17 09:00N 39°15' W 076°33'1 0.5
2018-Jun-17 07:27N 39°15' W 076°33'0 0.0
2018-Jun-17 07:00N 39°15' W 076°33'0 0.0
2018-Jun-17 06:30N 39°15' W 076°33'0 0.0
2018-Jun-17 06:00N 39°15' W 076°33'0 0.0
2018-Jun-17 05:30N 39°15' W 076°33'0 0.0
2018-Jun-17 05:00N 39°15' W 076°33'0 0.0
2018-Jun-17 04:30N 39°15' W 076°33'0 0.0
2018-Jun-17 03:57N 39°15' W 076°33'0 0.0
2018-Jun-17 03:30N 39°15' W 076°33'0 0.0
2018-Jun-17 02:54N 39°15' W 076°33'0 0.0
2018-Jun-17 01:54N 39°15' W 076°33'0 0.0
2018-Jun-17 01:30N 39°15' W 076°33'0 0.0
2018-Jun-17 00:54N 39°15' W 076°33'0 0.0
2018-Jun-17 00:30N 39°15' W 076°33'0 0.0
2018-Jun-17 00:00N 39°15' W 076°33'0 0.0
2018-Jun-16 23:29N 39°15' W 076°33'0 0.0
2018-Jun-16 22:41N 39°15' W 076°33'0 0.0
2018-Jun-16 22:08N 39°15' W 076°33'0 0.0
2018-Jun-16 20:41N 39°15' W 076°33'0 0.0
2018-Jun-16 19:20N 39°15' W 076°33'0 0.0
2018-Jun-16 18:59N 39°15' W 076°33'0 0.0
2018-Jun-16 18:26N 39°15' W 076°33'0 0.0
2018-Jun-16 17:32N 39°15' W 076°33'0 0.0
2018-Jun-16 17:24N 39°15' W 076°33'0 0.0
2018-Jun-16 16:56N 39°15' W 076°33'0 0.0
2018-Jun-16 16:18N 39°15' W 076°33'0 0.0
2018-Jun-16 15:56N 39°15' W 076°33'0 0.0
2018-Jun-16 15:12N 39°15' W 076°33'0 0.0
2018-Jun-16 14:59N 39°15' W 076°33'0 0.0
2018-Jun-16 14:18N 39°15' W 076°33'0 0.0
2018-Jun-16 13:54N 39°15' W 076°33'0 0.0
2018-Jun-16 13:29N 39°15' W 076°33'0 0.0
2018-Jun-16 12:56N 39°15' W 076°33'0 0.0
2018-Jun-16 12:30N 39°15' W 076°33'0 0.0
2018-Jun-16 12:00N 39°15' W 076°33'0 0.0
2018-Jun-16 11:17N 39°15' W 076°33'0 0.0
2018-Jun-16 10:59N 39°15' W 076°33'0 0.0
2018-Jun-16 10:30N 39°15' W 076°33'0 0.0
2018-Jun-16 09:35N 39°15' W 076°33'0 0.0
2018-Jun-16 09:26N 39°15' W 076°33'0 0.0
2018-Jun-16 08:56N 39°15' W 076°33'0 0.0
2018-Jun-16 08:30N 39°15' W 076°33'1 2.1
2018-Jun-16 08:00N 39°14' W 076°33'3 5.7
2018-Jun-16 07:28N 39°12' W 076°30'612.3
2018-Jun-16 07:00N 39°08' W 076°24'915.5
2018-Jun-16 06:27N 39°00' W 076°23'817.8
2018-Jun-16 06:00N 38°52' W 076°24'112 9.3
2018-Jun-15 18:00N 37°30' W 074°48'13414.1 070 / 121015.010.8 25.022.220.0
2018-Jun-15 08:32N 39°37' W 073°54'314.8
2018-Jun-15 08:21N 39°39' W 073°53'5912.1
2018-Jun-15 03:28N 40°38' W 074°03'3 7.2
2018-Jun-15 03:00N 40°39' W 074°08'2 0.1
2018-Jun-14 09:42N 40°39' W 074°10'2 7.3
2018-Jun-14 09:29N 40°39' W 074°08'4 7.6
2018-Jun-14 09:00N 40°38' W 074°03'10011.1
2018-Jun-14 00:00N 39°00' W 073°42'9315.5 200 / 141011.0 2.2 22.019.021.0
2018-Jun-13 18:00N 37°30' W 074°12'7512.4 160 / 151018.0 27.025.727.0
2018-Jun-13 12:00N 36°18' W 074°36'10016.7 160 / 131018.010.8 25.022.225.0
2018-Jun-13 06:00N 34°42' W 075°12'   200 / 161019.0 5.4 28.025.328.0
Track history (hours):
 
Tides and Currents Weather Stations Pressure Air Temp Water Temp Dewpoint Dewpoint Depression Visibility Wind Speed Wind Dir Waves Ship Positions

Maersk Dunbar

Last reported at 2018-Jun-23 06:00 UTC. Time now 2018-Jun-23 10:17 UTC.
Position N 17°24' W 074°48'.

Length 264 m; beam 32.3 m; draft 12.5 m.

Type: Ship (hazmat cat B). MMSI: 636090862.

Wind from 110 at 15 knots

Barometer 1015.0 mb
Air temperature 29.0 ° C
Visibility: greater than 10.8 NM
Dewpoint 26.3 ° C
Water temperature 29.0 ° C

Date/timePositionNaut miles runAvg speedWind from/ knotsBaromVisibWave heightAir tempDewpointWater temp
2018-Jun-23 06:00N 17°24' W 074°48'18015.0 110 / 151015.010.8 29.026.329.0
2018-Jun-22 18:00N 20°18' W 074°00'18315.2 110 / 101016.010.8 32.029.429.0
2018-Jun-22 06:00N 21°42' W 076°54'17914.9 110 / 101016.010.8 29.026.329.0
2018-Jun-21 18:00N 23°42' W 079°18'14215.1 230 / 101016.010.8 32.028.129.0
2018-Jun-21 08:32N 26°03' W 079°38'112.7
2018-Jun-21 08:29N 26°04' W 079°38'715.4
2018-Jun-21 08:00N 26°05' W 079°46'816.1
2018-Jun-21 07:30N 26°05' W 079°55'815.8
2018-Jun-21 07:00N 26°05' W 080°04'3 5.5
2018-Jun-21 06:30N 26°05' W 080°07'1 1.5
2018-Jun-21 05:55N 26°04' W 080°07'0 0.0
2018-Jun-21 05:25N 26°04' W 080°07'0 0.0
2018-Jun-21 04:55N 26°04' W 080°07'0 0.0
2018-Jun-21 04:25N 26°04' W 080°07'0 0.0
2018-Jun-21 03:55N 26°04' W 080°07'0 0.0
2018-Jun-21 03:25N 26°04' W 080°07'0 0.0
2018-Jun-21 02:58N 26°04' W 080°07'0 0.0
2018-Jun-21 02:25N 26°04' W 080°07'0 0.0
2018-Jun-21 01:58N 26°04' W 080°07'0 0.0
2018-Jun-21 01:25N 26°04' W 080°07'0 0.0
2018-Jun-21 00:58N 26°04' W 080°07'0 0.0
2018-Jun-21 00:28N 26°04' W 080°07'0 0.0
2018-Jun-20 23:58N 26°04' W 080°07'0 0.0
2018-Jun-20 23:28N 26°04' W 080°07'0 0.0
2018-Jun-20 22:58N 26°04' W 080°07'0 0.0
2018-Jun-20 22:28N 26°04' W 080°07'0 0.0
2018-Jun-20 21:58N 26°04' W 080°07'0 0.0
2018-Jun-20 21:28N 26°04' W 080°07'0 0.0
2018-Jun-20 20:46N 26°04' W 080°07'0 0.0
2018-Jun-20 19:46N 26°04' W 080°07'0 0.0
2018-Jun-20 19:28N 26°04' W 080°07'0 0.0
2018-Jun-20 18:58N 26°04' W 080°07'0 0.0
2018-Jun-20 18:28N 26°04' W 080°07'0 0.0
2018-Jun-20 17:58N 26°04' W 080°07'0 0.0
2018-Jun-20 17:28N 26°04' W 080°07'0 0.0
2018-Jun-20 16:58N 26°04' W 080°07'0 0.8
2018-Jun-20 16:30N 26°05' W 080°07'2 4.8
2018-Jun-20 16:00N 26°06' W 080°04'3 5.6
2018-Jun-20 15:30N 26°06' W 080°01'2 3.3
2018-Jun-20 15:00N 26°06' W 079°59'3 6.0
2018-Jun-20 14:30N 26°06' W 079°56'3 5.7
2018-Jun-20 14:00N 26°06' W 079°53'3 5.5
2018-Jun-20 13:29N 26°07' W 079°50'3 5.3
2018-Jun-20 13:00N 26°09' W 079°48'5 9.6
2018-Jun-20 12:29N 26°13' W 079°46'11417.6
2018-Jun-20 06:00N 28°00' W 079°00'28917.5 160 / 121016.010.8 25.022.228.0
2018-Jun-19 13:32N 32°45' W 079°52'210.2
2018-Jun-19 13:22N 32°46' W 079°53'2 0.1
2018-Jun-18 21:05N 32°48' W 079°55'1 7.7
2018-Jun-18 21:00N 32°47' W 079°55'38611.7
2018-Jun-17 12:05N 38°34' W 076°26'1618.9
2018-Jun-17 11:14N 38°50' W 076°24'418.6
2018-Jun-17 11:00N 38°54' W 076°24'1113.8
2018-Jun-17 10:14N 39°05' W 076°24'412.4
2018-Jun-17 09:54N 39°09' W 076°25'510.7
2018-Jun-17 09:29N 39°12' W 076°29'5 9.6
2018-Jun-17 09:00N 39°15' W 076°33'1 0.5
2018-Jun-17 07:27N 39°15' W 076°33'0 0.0
2018-Jun-17 07:00N 39°15' W 076°33'0 0.0
2018-Jun-17 06:30N 39°15' W 076°33'0 0.0
2018-Jun-17 06:00N 39°15' W 076°33'0 0.0
2018-Jun-17 05:30N 39°15' W 076°33'0 0.0
2018-Jun-17 05:00N 39°15' W 076°33'0 0.0
2018-Jun-17 04:30N 39°15' W 076°33'0 0.0
2018-Jun-17 03:57N 39°15' W 076°33'0 0.0
2018-Jun-17 03:30N 39°15' W 076°33'0 0.0
2018-Jun-17 02:54N 39°15' W 076°33'0 0.0
2018-Jun-17 01:54N 39°15' W 076°33'0 0.0
2018-Jun-17 01:30N 39°15' W 076°33'0 0.0
2018-Jun-17 00:54N 39°15' W 076°33'0 0.0
2018-Jun-17 00:30N 39°15' W 076°33'0 0.0
2018-Jun-17 00:00N 39°15' W 076°33'0 0.0
2018-Jun-16 23:29N 39°15' W 076°33'0 0.0
2018-Jun-16 22:41N 39°15' W 076°33'0 0.0
2018-Jun-16 22:08N 39°15' W 076°33'0 0.0
2018-Jun-16 20:41N 39°15' W 076°33'0 0.0
2018-Jun-16 19:20N 39°15' W 076°33'0 0.0
2018-Jun-16 18:59N 39°15' W 076°33'0 0.0
2018-Jun-16 18:26N 39°15' W 076°33'0 0.0
2018-Jun-16 17:32N 39°15' W 076°33'0 0.0
2018-Jun-16 17:24N 39°15' W 076°33'0 0.0
2018-Jun-16 16:56N 39°15' W 076°33'0 0.0
2018-Jun-16 16:18N 39°15' W 076°33'0 0.0
2018-Jun-16 15:56N 39°15' W 076°33'0 0.0
2018-Jun-16 15:12N 39°15' W 076°33'0 0.0
2018-Jun-16 14:59N 39°15' W 076°33'0 0.0
2018-Jun-16 14:18N 39°15' W 076°33'0 0.0
2018-Jun-16 13:54N 39°15' W 076°33'0 0.0
2018-Jun-16 13:29N 39°15' W 076°33'0 0.0
2018-Jun-16 12:56N 39°15' W 076°33'0 0.0
2018-Jun-16 12:30N 39°15' W 076°33'0 0.0
2018-Jun-16 12:00N 39°15' W 076°33'0 0.0
2018-Jun-16 11:17N 39°15' W 076°33'0 0.0
2018-Jun-16 10:59N 39°15' W 076°33'0 0.0
2018-Jun-16 10:30N 39°15' W 076°33'0 0.0
2018-Jun-16 09:35N 39°15' W 076°33'0 0.0
2018-Jun-16 09:26N 39°15' W 076°33'0 0.0
2018-Jun-16 08:56N 39°15' W 076°33'0 0.0
2018-Jun-16 08:30N 39°15' W 076°33'1 2.1
2018-Jun-16 08:00N 39°14' W 076°33'3 5.7
2018-Jun-16 07:28N 39°12' W 076°30'612.3
2018-Jun-16 07:00N 39°08' W 076°24'915.5
2018-Jun-16 06:27N 39°00' W 076°23'817.8
2018-Jun-16 06:00N 38°52' W 076°24'112 9.3
2018-Jun-15 18:00N 37°30' W 074°48'13414.1 070 / 121015.010.8 25.022.220.0
2018-Jun-15 08:32N 39°37' W 073°54'314.8
2018-Jun-15 08:21N 39°39' W 073°53'5912.1
2018-Jun-15 03:28N 40°38' W 074°03'3 7.2
2018-Jun-15 03:00N 40°39' W 074°08'2 0.1
2018-Jun-14 09:42N 40°39' W 074°10'2 7.3
2018-Jun-14 09:29N 40°39' W 074°08'4 7.6
2018-Jun-14 09:00N 40°38' W 074°03'10011.1
2018-Jun-14 00:00N 39°00' W 073°42'9315.5 200 / 141011.0 2.2 22.019.021.0
2018-Jun-13 18:00N 37°30' W 074°12'7512.4 160 / 151018.0 27.025.727.0
2018-Jun-13 12:00N 36°18' W 074°36'10016.7 160 / 131018.010.8 25.022.225.0
2018-Jun-13 06:00N 34°42' W 075°12'   200 / 161019.0 5.4 28.025.328.0

Dump ship's entire track history